Time,TemperatureF,DewpointF,PressureIn,WindDirection,WindDirectionDegrees,WindSpeedMPH,WindSpeedGustMPH,Humidity,HourlyPrecipIn,Conditions,Clouds,dailyrainin,SoftwareType,DateUTC
2013-10-11 05:50:00,65.3,37.0,29.68,North,0,0.0,0.0,35,0.00,,,-99.99,VWS V12.07,2013-10-11 09:50:00,
2013-10-11 06:00:00,65.1,37.5,29.68,North,0,0.0,0.0,36,0.00,,,-99.99,VWS V12.07,2013-10-11 10:00:00,
2013-10-11 06:10:00,65.1,37.5,29.68,North,0,0.0,0.0,36,0.00,,,-99.99,VWS V12.07,2013-10-11 10:10:00,
2013-10-11 06:20:00,64.8,37.2,29.68,North,0,0.0,0.0,36,0.00,,,-99.99,VWS V12.07,2013-10-11 10:20:00,
2013-10-11 06:30:00,64.6,37.0,29.68,North,0,0.0,0.0,36,0.00,,,-99.99,VWS V12.07,2013-10-11 10:30:00,
2013-10-11 06:40:00,64.4,36.9,29.68,North,0,0.0,0.0,36,0.00,,,-99.99,VWS V12.07,2013-10-11 10:40:00,
2013-10-11 06:50:00,64.4,36.9,29.68,North,0,0.0,0.0,36,0.00,,,-99.99,VWS V12.07,2013-10-11 10:50:00,
2013-10-11 07:00:00,64.4,36.9,29.68,North,0,0.0,0.0,36,0.00,,,-99.99,VWS V12.07,2013-10-11 11:00:00,
2013-10-11 07:10:00,64.4,36.9,29.71,North,0,0.0,0.0,36,0.00,,,-99.99,VWS V12.07,2013-10-11 11:10:00,
2013-10-11 07:20:00,64.4,36.9,29.71,North,0,0.0,0.0,36,0.00,,,-99.99,VWS V12.07,2013-10-11 11:20:00,
2013-10-11 07:30:00,64.6,37.0,29.71,North,0,0.0,0.0,36,0.00,,,-99.99,VWS V12.07,2013-10-11 11:30:00,
2013-10-11 07:40:00,64.4,36.9,29.71,North,0,0.0,0.0,36,0.00,,,-99.99,VWS V12.07,2013-10-11 11:40:00,
2013-10-11 07:50:00,64.4,37.6,29.71,North,0,0.0,0.0,37,0.00,,,-99.99,VWS V12.07,2013-10-11 11:50:00,
2013-10-11 08:00:00,64.8,37.9,29.71,North,0,0.0,0.0,37,0.00,,,-99.99,VWS V12.07,2013-10-11 12:00:00,
2013-10-11 08:10:00,65.1,38.2,29.71,North,0,0.0,0.0,37,0.00,,,-99.99,VWS V12.07,2013-10-11 12:10:00,
2013-10-11 08:20:00,65.7,38.7,29.71,North,0,0.0,0.0,37,0.00,,,-99.99,VWS V12.07,2013-10-11 12:20:00,
2013-10-11 08:30:00,66.6,39.5,29.71,North,0,0.0,0.0,37,0.00,,,-99.99,VWS V12.07,2013-10-11 12:30:00,
2013-10-11 08:40:00,67.6,41.2,29.74,North,0,0.0,0.0,38,0.00,,,-99.99,VWS V12.07,2013-10-11 12:40:00,
2013-10-11 08:50:00,68.4,41.1,29.74,North,0,0.0,0.0,37,0.00,,,-99.99,VWS V12.07,2013-10-11 12:50:00,
2013-10-11 09:00:00,68.9,42.3,29.74,North,0,0.0,0.0,38,0.00,,,-99.99,VWS V12.07,2013-10-11 13:00:00,
2013-10-11 09:10:00,69.4,42.8,29.74,North,0,0.0,0.0,38,0.00,,,-99.99,VWS V12.07,2013-10-11 13:10:00,
2013-10-11 09:20:00,70.2,43.4,29.74,North,0,0.0,0.0,38,0.00,,,-99.99,VWS V12.07,2013-10-11 13:20:00,
2013-10-11 09:30:00,71.4,43.8,29.74,North,0,0.0,0.0,37,0.00,,,-99.99,VWS V12.07,2013-10-11 13:30:00,
2013-10-11 09:40:00,72.5,41.8,29.74,North,0,0.0,0.0,33,0.00,,,-99.99,VWS V12.07,2013-10-11 13:40:00,
2013-10-11 09:50:00,73.4,41.0,29.74,North,0,0.0,0.0,31,0.00,,,-99.99,VWS V12.07,2013-10-11 13:50:00,
2013-10-11 10:00:00,74.5,41.9,29.74,North,0,0.0,0.0,31,0.00,,,-99.99,VWS V12.07,2013-10-11 14:00:00,
2013-10-11 10:10:00,75.2,42.5,29.74,North,0,0.0,0.0,31,0.00,,,-99.99,VWS V12.07,2013-10-11 14:10:00,
2013-10-11 10:20:00,76.1,43.3,29.74,North,0,0.0,0.0,31,0.00,,,-99.99,VWS V12.07,2013-10-11 14:20:00,
2013-10-11 10:30:00,76.8,43.9,29.74,North,0,0.0,0.0,31,0.00,,,-99.99,VWS V12.07,2013-10-11 14:30:00,
2013-10-11 10:40:00,77.7,44.7,29.74,North,0,0.0,0.0,31,0.00,,,-99.99,VWS V12.07,2013-10-11 14:40:00,
2013-10-11 10:50:00,78.4,45.3,29.74,North,0,0.0,0.0,31,0.00,,,-99.99,VWS V12.07,2013-10-11 14:50:00,
2013-10-11 11:00:00,79.5,45.4,29.74,North,0,0.0,0.0,30,0.00,,,-99.99,VWS V12.07,2013-10-11 15:00:00,
2013-10-11 11:10:00,80.8,46.5,29.74,North,0,0.0,0.0,30,0.00,,,-99.99,VWS V12.07,2013-10-11 15:10:00,
2013-10-11 11:20:00,82.2,47.7,29.74,North,0,0.0,0.0,30,0.00,,,-99.99,VWS V12.07,2013-10-11 15:20:00,
2013-10-11 11:30:00,83.8,48.2,29.74,North,0,0.0,0.0,29,0.00,,,-99.99,VWS V12.07,2013-10-11 15:30:00,
2013-10-11 11:40:00,86.2,50.2,29.74,North,0,0.0,0.0,29,0.00,,,-99.99,VWS V12.07,2013-10-11 15:40:00,
2013-10-11 11:50:00,87.6,51.5,29.74,North,0,0.0,0.0,29,0.00,,,-99.99,VWS V12.07,2013-10-11 15:50:00,
2013-10-11 12:00:00,88.3,51.1,29.74,North,0,0.0,0.0,28,0.00,,,-99.99,VWS V12.07,2013-10-11 16:00:00,
2013-10-11 12:10:00,89.2,51.9,29.74,North,0,0.0,0.0,28,0.00,,,-99.99,VWS V12.07,2013-10-11 16:10:00,
2013-10-11 12:20:00,91.0,53.4,29.74,North,0,0.0,0.0,28,0.00,,,-99.99,VWS V12.07,2013-10-11 16:20:00,
2013-10-11 12:30:00,91.8,53.1,29.74,North,0,0.0,0.0,27,0.00,,,-99.99,VWS V12.07,2013-10-11 16:30:00,
2013-10-11 12:40:00,92.1,53.4,29.71,North,0,0.0,0.0,27,0.00,,,-99.99,VWS V12.07,2013-10-11 16:40:00,
2013-10-11 12:50:00,93.4,54.4,29.71,North,0,0.0,0.0,27,0.00,,,-99.99,VWS V12.07,2013-10-11 16:50:00,
2013-10-11 13:00:00,92.3,53.5,29.71,North,0,0.0,0.0,27,0.00,,,-99.99,VWS V12.07,2013-10-11 17:00:00,
2013-10-11 13:10:00,91.8,53.1,29.71,North,0,0.0,0.0,27,0.00,,,-99.99,VWS V12.07,2013-10-11 17:10:00,
2013-10-11 13:20:00,92.3,53.5,29.71,North,0,0.0,0.0,27,0.00,,,-99.99,VWS V12.07,2013-10-11 17:20:00,
2013-10-11 13:30:00,92.5,53.7,29.71,North,0,0.0,0.0,27,0.00,,,-99.99,VWS V12.07,2013-10-11 17:30:00,
2013-10-11 13:40:00,91.9,53.2,29.71,North,0,0.0,0.0,27,0.00,,,-99.99,VWS V12.07,2013-10-11 17:40:00,
2013-10-11 13:50:00,92.8,54.0,29.68,North,0,0.0,0.0,27,0.00,,,-99.99,VWS V12.07,2013-10-11 17:50:00,
2013-10-11 14:00:00,93.0,54.1,29.68,North,0,0.0,0.0,27,0.00,,,-99.99,VWS V12.07,2013-10-11 18:00:00,
2013-10-11 14:10:00,92.7,53.8,29.68,North,0,0.0,0.0,27,0.00,,,-99.99,VWS V12.07,2013-10-11 18:10:00,
2013-10-11 14:20:00,90.7,53.1,29.68,North,0,0.0,0.0,28,0.00,,,-99.99,VWS V12.07,2013-10-11 18:20:00,
2013-10-11 14:30:00,89.1,51.8,29.68,North,0,0.0,0.0,28,0.00,,,-99.99,VWS V12.07,2013-10-11 18:30:00,
2013-10-11 14:40:00,89.2,51.9,29.68,North,0,0.0,0.0,28,0.00,,,-99.99,VWS V12.07,2013-10-11 18:40:00,
2013-10-11 14:50:00,91.2,53.6,29.68,North,0,0.0,0.0,28,0.00,,,-99.99,VWS V12.07,2013-10-11 18:50:00,
2013-10-11 15:00:00,92.7,53.8,29.68,North,0,0.0,0.0,27,0.00,,,-99.99,VWS V12.07,2013-10-11 19:00:00,
2013-10-11 15:10:00,94.1,55.0,29.65,North,0,0.0,0.0,27,0.00,,,-99.99,VWS V12.07,2013-10-11 19:10:00,
2013-10-11 15:20:00,94.8,55.7,29.65,North,0,0.0,0.0,27,0.00,,,-99.99,VWS V12.07,2013-10-11 19:20:00,
2013-10-11 15:30:00,95.2,56.0,29.65,North,0,0.0,0.0,27,0.00,,,-99.99,VWS V12.07,2013-10-11 19:30:00,
2013-10-11 15:40:00,95.7,56.4,29.65,North,0,0.0,0.0,27,0.00,,,-99.99,VWS V12.07,2013-10-11 19:40:00,
2013-10-11 15:50:00,94.8,55.7,29.65,North,0,0.0,0.0,27,0.00,,,-99.99,VWS V12.07,2013-10-11 19:50:00,
2013-10-11 16:00:00,94.6,55.5,29.65,North,0,0.0,0.0,27,0.00,,,-99.99,VWS V12.07,2013-10-11 20:00:00,
2013-10-11 16:10:00,94.6,55.5,29.65,North,0,0.0,0.0,27,0.00,,,-99.99,VWS V12.07,2013-10-11 20:10:00,
2013-10-11 16:20:00,94.5,55.3,29.65,North,0,0.0,0.0,27,0.00,,,-99.99,VWS V12.07,2013-10-11 20:20:00,
2013-10-11 16:30:00,95.0,55.8,29.65,North,0,0.0,0.0,27,0.00,,,-99.99,VWS V12.07,2013-10-11 20:30:00,
2013-10-11 16:40:00,95.4,56.1,29.65,North,0,0.0,0.0,27,0.00,,,-99.99,VWS V12.07,2013-10-11 20:40:00,
2013-10-11 16:50:00,94.5,55.3,29.65,North,0,0.0,0.0,27,0.00,,,-99.99,VWS V12.07,2013-10-11 20:50:00,
2013-10-11 17:00:00,93.2,54.3,29.65,North,0,0.0,0.0,27,0.00,,,-99.99,VWS V12.07,2013-10-11 21:00:00,
2013-10-11 17:10:00,92.8,54.0,29.65,North,0,0.0,0.0,27,0.00,,,-99.99,VWS V12.07,2013-10-11 21:10:00,
2013-10-11 17:20:00,92.3,53.5,29.65,North,0,0.0,0.0,27,0.00,,,-99.99,VWS V12.07,2013-10-11 21:20:00,
2013-10-11 17:30:00,91.4,52.8,29.65,North,0,0.0,0.0,27,0.00,,,-99.99,VWS V12.07,2013-10-11 21:30:00,
2013-10-11 17:40:00,91.4,52.8,29.65,North,0,0.0,0.0,27,0.00,,,-99.99,VWS V12.07,2013-10-11 21:40:00,
2013-10-11 17:50:00,90.3,52.8,29.65,North,0,0.0,0.0,28,0.00,,,-99.99,VWS V12.07,2013-10-11 21:50:00,
2013-10-11 18:00:00,89.4,52.1,29.65,North,0,0.0,0.0,28,0.00,,,-99.99,VWS V12.07,2013-10-11 22:00:00,
2013-10-11 18:10:00,87.4,51.3,29.65,North,0,0.0,0.0,29,0.00,,,-99.99,VWS V12.07,2013-10-11 22:10:00,
2013-10-11 18:20:00,86.2,50.2,29.65,North,0,0.0,0.0,29,0.00,,,-99.99,VWS V12.07,2013-10-11 22:20:00,
2013-10-11 18:30:00,84.9,49.2,29.65,North,0,0.0,0.0,29,0.00,,,-99.99,VWS V12.07,2013-10-11 22:30:00,
2013-10-11 18:40:00,83.3,47.8,29.65,North,0,0.0,0.0,29,0.00,,,-99.99,VWS V12.07,2013-10-11 22:40:00,
2013-10-11 18:50:00,82.2,47.7,29.65,North,0,0.0,0.0,30,0.00,,,-99.99,VWS V12.07,2013-10-11 22:50:00,
2013-10-11 19:00:00,81.1,46.8,29.65,North,0,0.0,0.0,30,0.00,,,-99.99,VWS V12.07,2013-10-11 23:00:00,
2013-10-11 19:10:00,80.4,46.2,29.65,North,0,0.0,0.0,30,0.00,,,-99.99,VWS V12.07,2013-10-11 23:10:00,
2013-10-11 19:20:00,79.5,45.4,29.65,North,0,0.0,0.0,30,0.00,,,-99.99,VWS V12.07,2013-10-11 23:20:00,
2013-10-11 19:30:00,78.8,44.8,29.65,North,0,0.0,0.0,30,0.00,,,-99.99,VWS V12.07,2013-10-11 23:30:00,
2013-10-11 19:40:00,78.1,45.0,29.65,North,0,0.0,0.0,31,0.00,,,-99.99,VWS V12.07,2013-10-11 23:40:00,
2013-10-11 19:50:00,77.5,44.5,29.65,North,0,0.0,0.0,31,0.00,,,-99.99,VWS V12.07,2013-10-11 23:50:00,
2013-10-11 20:00:00,77.0,44.1,29.65,North,0,0.0,0.0,31,0.00,,,-99.99,VWS V12.07,2013-10-12 00:00:00,
2013-10-11 20:10:00,76.6,43.8,29.65,North,0,0.0,0.0,31,0.00,,,-99.99,VWS V12.07,2013-10-12 00:10:00,
2013-10-11 20:20:00,76.3,43.5,29.65,North,0,0.0,0.0,31,0.00,,,-99.99,VWS V12.07,2013-10-12 00:20:00,
2013-10-11 20:30:00,75.7,43.0,29.65,North,0,0.0,0.0,31,0.00,,,-99.99,VWS V12.07,2013-10-12 00:30:00,
2013-10-11 20:40:00,75.2,42.5,29.65,North,0,0.0,0.0,31,0.00,,,-99.99,VWS V12.07,2013-10-12 00:40:00,
2013-10-11 20:50:00,74.7,42.0,29.68,North,0,0.0,0.0,31,0.00,,,-99.99,VWS V12.07,2013-10-12 00:50:00,
2013-10-11 21:00:00,74.1,41.6,29.68,North,0,0.0,0.0,31,0.00,,,-99.99,VWS V12.07,2013-10-12 01:00:00,
2013-10-11 21:10:00,73.6,41.1,29.68,North,0,0.0,0.0,31,0.00,,,-99.99,VWS V12.07,2013-10-12 01:10:00,
2013-10-11 21:20:00,73.2,41.6,29.68,North,0,0.0,0.0,32,0.00,,,-99.99,VWS V12.07,2013-10-12 01:20:00,
2013-10-11 21:30:00,73.0,41.5,29.68,North,0,0.0,0.0,32,0.00,,,-99.99,VWS V12.07,2013-10-12 01:30:00,
2013-10-11 21:40:00,72.7,41.2,29.68,North,0,0.0,0.0,32,0.00,,,-99.99,VWS V12.07,2013-10-12 01:40:00,
2013-10-11 21:50:00,72.3,40.8,29.68,North,0,0.0,0.0,32,0.00,,,-99.99,VWS V12.07,2013-10-12 01:50:00,
2013-10-11 22:00:00,71.8,40.4,29.68,North,0,0.0,0.0,32,0.00,,,-99.99,VWS V12.07,2013-10-12 02:00:00,
2013-10-11 22:10:00,71.4,40.0,29.68,North,0,0.0,0.0,32,0.00,,,-99.99,VWS V12.07,2013-10-12 02:10:00,
2013-10-11 22:20:00,71.2,39.9,29.68,North,0,0.0,0.0,32,0.00,,,-99.99,VWS V12.07,2013-10-12 02:20:00,
2013-10-11 22:30:00,70.9,39.6,29.68,North,0,0.0,0.0,32,0.00,,,-99.99,VWS V12.07,2013-10-12 02:30:00,
2013-10-11 22:40:00,70.7,39.4,29.68,North,0,0.0,0.0,32,0.00,,,-99.99,VWS V12.07,2013-10-12 02:40:00,
2013-10-11 22:50:00,70.5,39.3,29.71,North,0,0.0,0.0,32,0.00,,,-99.99,VWS V12.07,2013-10-12 02:50:00,
2013-10-11 23:00:00,70.2,39.0,29.71,North,0,0.0,0.0,32,0.00,,,-99.99,VWS V12.07,2013-10-12 03:00:00,
2013-10-11 23:10:00,69.8,38.6,29.71,North,0,0.0,0.0,32,0.00,,,-99.99,VWS V12.07,2013-10-12 03:10:00,
2013-10-11 23:20:00,69.4,39.1,29.71,North,0,0.0,0.0,33,0.00,,,-99.99,VWS V12.07,2013-10-12 03:20:00,
2013-10-11 23:30:00,69.3,39.0,29.71,North,0,0.0,0.0,33,0.00,,,-99.99,VWS V12.07,2013-10-12 03:30:00,
2013-10-11 23:40:00,69.1,38.8,29.71,North,0,0.0,0.0,33,0.00,,,-99.99,VWS V12.07,2013-10-12 03:40:00,
2013-10-11 23:50:00,68.9,38.6,29.71,North,0,0.0,0.0,33,0.00,,,-99.99,VWS V12.07,2013-10-12 03:50:00,